Time;durP1;ratioP1;P1;durP2;ratioP2;P2;SDS_P1;SDS_P2;PMS_P1;PMS_P2;Temp;Humidity;BMP_temperature;BMP_pressure;BME280_temperature;BME280_humidity;BME280_pressure;Samples;Min_cycle;Max_cycle;Signal;HPM_P1;HPM_P2
2023/06/11 00:00:22;;;;;;;8.00;6.78;;;;;;;19.34;42.52;100512.56;20726004;28;20213;-78
2023/06/11 00:10:24;;;;;;;7.85;6.70;;;;;;;19.53;42.21;100519.25;20687509;28;20995;-77
2023/06/11 00:20:27;;;;;;;8.75;6.80;;;;;;;19.20;42.79;100508.78;20657730;28;20222;-78
2023/06/11 00:30:29;;;;;;;9.15;7.13;;;;;;;18.99;43.20;100523.72;20667266;28;20298;-78
2023/06/11 00:40:32;;;;;;;8.90;7.15;;;;;;;18.31;44.78;100522.19;20696122;28;20448;-78
2023/06/11 00:50:44;;;;;;;8.65;7.75;;;;;;;18.78;43.95;100517.81;20698660;28;20499;-77
2023/06/11 01:00:49;;;;;;;9.00;7.32;;;;;;;18.22;45.08;100521.69;20675862;28;20250;-79
2023/06/11 01:10:52;;;;;;;8.88;7.15;;;;;;;18.54;44.29;100514.28;20679379;28;20264;-79
2023/06/11 01:21:09;;;;;;;8.30;6.63;;;;;;;18.68;43.95;100517.31;20715939;28;20189;-78
2023/06/11 01:31:14;;;;;;;8.05;7.25;;;;;;;17.90;46.43;100515.53;20717239;28;20255;-78
2023/06/11 01:41:17;;;;;;;8.63;7.13;;;;;;;17.27;47.65;100542.75;20665716;28;20194;-79
2023/06/11 01:51:21;;;;;;;10.30;7.32;;;;;;;17.49;46.87;100531.69;20675432;28;20217;-78
2023/06/11 02:01:24;;;;;;;7.80;6.95;;;;;;;17.69;46.02;100530.38;20731548;28;20193;-79
2023/06/11 02:11:27;;;;;;;8.02;7.32;;;;;;;17.24;47.48;100526.41;20752953;28;20204;-78
2023/06/11 02:21:30;;;;;;;7.78;6.97;;;;;;;17.72;45.60;100532.47;20750222;28;20185;-78
2023/06/11 02:31:32;;;;;;;7.75;7.05;;;;;;;17.43;46.57;100547.50;20752764;28;20298;-78
2023/06/11 02:41:35;;;;;;;12.43;8.30;;;;;;;17.23;47.07;100539.00;20693810;28;20189;-79
2023/06/11 02:51:38;;;;;;;7.85;7.03;;;;;;;17.40;46.88;100539.72;20700472;28;20221;-79
2023/06/11 03:01:40;;;;;;;8.82;7.93;;;;;;;17.11;47.48;100538.41;20698486;28;20198;-78
2023/06/11 03:11:44;;;;;;;9.18;7.53;;;;;;;16.99;47.87;100530.88;20684929;28;20218;-78
2023/06/11 03:21:47;;;;;;;9.15;8.25;;;;;;;16.68;48.50;100536.84;20678281;28;20182;-79
2023/06/11 03:31:50;;;;;;;8.30;7.50;;;;;;;17.11;47.20;100544.09;20744398;28;20284;-78
2023/06/11 03:41:55;;;;;;;10.80;8.80;;;;;;;16.89;47.63;100538.06;20728800;28;20252;-78
2023/06/11 03:51:59;;;;;;;9.55;7.57;;;;;;;16.72;48.58;100546.28;20680233;28;20210;-79
2023/06/11 04:02:02;;;;;;;8.70;7.43;;;;;;;16.83;48.98;100544.47;20741963;28;20197;-78
2023/06/11 04:12:05;;;;;;;8.20;7.40;;;;;;;16.73;48.91;100556.47;20739022;28;20276;-78
2023/06/11 04:22:08;;;;;;;8.30;7.50;;;;;;;17.07;49.16;100555.47;20686502;28;20255;-79
2023/06/11 04:32:11;;;;;;;9.30;8.27;;;;;;;16.40;51.79;100571.31;20715187;28;20221;-79
2023/06/11 04:42:16;;;;;;;9.07;8.10;;;;;;;16.57;51.52;100562.28;20733877;28;20197;-78
2023/06/11 04:52:26;;;;;;;9.68;8.57;;;;;;;17.29;49.80;100548.13;20731166;28;20213;-79
2023/06/11 05:02:29;;;;;;;9.75;7.82;;;;;;;17.50;48.88;100554.16;20723494;28;20247;-79
2023/06/11 05:12:32;;;;;;;11.60;8.10;;;;;;;17.60;49.11;100552.69;20737431;28;20241;-78
2023/06/11 05:22:35;;;;;;;8.43;7.13;;;;;;;17.82;48.32;100557.47;20709489;28;20217;-79
2023/06/11 05:32:38;;;;;;;8.48;7.30;;;;;;;18.23;46.13;100560.50;20721923;28;20352;-78
2023/06/11 05:42:41;;;;;;;11.20;7.70;;;;;;;18.18;46.66;100560.81;20718673;28;20193;-80
2023/06/11 05:52:45;;;;;;;9.50;7.47;;;;;;;18.67;46.32;100567.13;20679459;28;20264;-80
2023/06/11 06:02:48;;;;;;;8.07;7.13;;;;;;;18.95;46.25;100562.91;20704776;28;20192;-78
2023/06/11 06:12:58;;;;;;;9.35;8.45;;;;;;;18.92;46.12;100560.84;20713832;28;20754;-78
2023/06/11 06:23:01;;;;;;;7.32;6.63;;;;;;;19.54;45.55;100567.53;20720190;28;20291;-79
2023/06/11 06:33:04;;;;;;;6.57;5.95;;;;;;;19.80;43.57;100575.09;20694910;28;20300;-78
2023/06/11 06:43:09;;;;;;;7.50;6.80;;;;;;;20.79;41.05;100580.41;20676652;28;20228;-79
2023/06/11 06:53:16;;;;;;;7.03;5.32;;;;;;;20.61;40.70;100580.38;20666398;28;20287;-79
2023/06/11 07:03:21;;;;;;;7.22;6.53;;;;;;;21.24;38.76;100581.75;20667597;28;20677;-79
2023/06/11 07:13:23;;;;;;;6.47;5.90;;;;;;;21.32;38.27;100580.50;20693803;28;20299;-80
2023/06/11 07:23:26;;;;;;;6.93;5.97;;;;;;;22.06;37.32;100579.56;20729844;28;20267;-80
2023/06/11 07:33:29;;;;;;;5.53;5.05;;;;;;;21.96;36.28;100588.22;20732478;28;20245;-81
2023/06/11 07:43:32;;;;;;;7.50;4.97;;;;;;;22.65;34.47;100596.22;20725501;28;20221;-79
2023/06/11 07:53:37;;;;;;;5.20;4.65;;;;;;;22.31;34.06;100601.69;20700368;28;20514;-82
2023/06/11 08:03:40;;;;;;;8.82;4.80;;;;;;;23.34;33.74;100584.63;20710607;28;21005;-82
2023/06/11 08:13:42;;;;;;;4.85;4.40;;;;;;;22.56;32.79;100590.88;20714530;28;20249;-82
2023/06/11 08:23:44;;;;;;;6.57;4.25;;;;;;;23.78;31.06;100583.00;20698374;28;20202;-80
2023/06/11 08:33:46;;;;;;;5.20;3.75;;;;;;;23.56;31.13;100574.56;20697972;28;20244;-82
2023/06/11 08:43:49;;;;;;;4.50;4.10;;;;;;;23.89;29.85;100580.81;20693385;28;20185;-81
2023/06/11 08:53:52;;;;;;;4.15;3.85;;;;;;;23.71;30.00;100577.31;20715361;28;20266;-81
2023/06/11 09:03:55;;;;;;;4.85;4.35;;;;;;;24.45;28.63;100562.03;20711472;28;20202;-81
2023/06/11 09:13:57;;;;;;;5.00;3.58;;;;;;;24.42;28.79;100564.97;20725248;28;20224;-83
2023/06/11 09:24:10;;;;;;;6.38;4.25;;;;;;;24.38;28.75;100567.88;20701056;28;20221;-80
2023/06/11 09:34:16;;;;;;;5.93;4.30;;;;;;;24.95;27.50;100559.25;20686801;28;20248;-78
2023/06/11 09:44:19;;;;;;;4.63;4.18;;;;;;;25.05;27.18;100561.13;20701563;28;20233;-84
2023/06/11 09:54:21;;;;;;;5.57;4.30;;;;;;;25.43;25.81;100566.72;20664311;28;20671;-83
2023/06/11 10:04:24;;;;;;;4.78;4.22;;;;;;;25.89;26.15;100556.41;20699426;28;20595;-81
2023/06/11 10:14:26;;;;;;;5.93;4.30;;;;;;;25.94;25.53;100555.88;20658047;28;20319;-82
2023/06/11 10:24:29;;;;;;;4.43;4.03;;;;;;;25.75;25.64;100552.50;20668455;28;20221;-82
2023/06/11 10:34:39;;;;;;;4.68;4.00;;;;;;;25.97;24.68;100555.00;20667033;28;20320;-85
2023/06/11 10:44:42;;;;;;;6.82;4.35;;;;;;;25.81;25.64;100560.69;20701686;28;20936;-83
2023/06/11 10:54:50;;;;;;;5.13;4.65;;;;;;;25.83;24.43;100558.16;20728496;28;20590;-85
2023/06/11 11:04:53;;;;;;;7.20;4.53;;;;;;;26.39;23.09;100545.44;20707563;28;20614;-77
2023/06/11 11:14:55;;;;;;;7.55;4.60;;;;;;;26.66;23.74;100541.53;20711181;28;20604;-84
2023/06/11 11:25:02;;;;;;;6.43;4.45;;;;;;;26.38;23.16;100538.00;20726224;28;20260;-83
2023/06/11 11:35:07;;;;;;;5.22;4.25;;;;;;;27.25;22.33;100526.03;20712957;28;20662;-83
2023/06/11 11:45:12;;;;;;;4.80;4.32;;;;;;;27.74;22.45;100523.94;20701661;28;20596;-82
2023/06/11 11:55:16;;;;;;;4.97;4.47;;;;;;;27.77;21.54;100518.00;20714035;28;20622;-84
2023/06/11 12:05:18;;;;;;;6.22;4.25;;;;;;;27.15;22.21;100525.84;20680574;28;20209;-81
2023/06/11 12:15:22;;;;;;;8.70;4.22;;;;;;;26.90;22.93;100516.16;20734220;28;20225;-80
2023/06/11 12:25:25;;;;;;;5.53;4.80;;;;;;;26.56;22.84;100496.28;20730964;28;20198;-83
2023/06/11 12:35:28;;;;;;;7.30;4.90;;;;;;;28.29;21.30;100478.34;20702442;28;20300;-81
2023/06/11 12:45:32;;;;;;;5.20;4.15;;;;;;;25.91;24.91;100498.94;20706780;28;20185;-80
2023/06/11 12:55:35;;;;;;;9.93;4.57;;;;;;;28.05;22.10;100483.63;20726791;28;20275;-82
2023/06/11 13:05:37;;;;;;;5.32;4.40;;;;;;;28.01;21.07;100485.81;20686054;28;20194;-83
2023/06/11 13:15:43;;;;;;;6.88;4.28;;;;;;;27.40;23.03;100486.72;20680332;28;20253;-83
2023/06/11 13:25:46;;;;;;;7.05;4.80;;;;;;;28.22;23.01;100484.41;20684224;28;20225;-82
2023/06/11 13:35:50;;;;;;;10.50;4.45;;;;;;;27.64;20.81;100479.41;20693920;28;20265;-81
2023/06/11 13:45:53;;;;;;;7.13;4.70;;;;;;;27.81;21.66;100466.50;20701239;28;20282;-83
2023/06/11 13:55:55;;;;;;;7.60;4.72;;;;;;;28.64;22.30;100482.25;20687729;28;20275;-87
2023/06/11 14:05:58;;;;;;;5.22;4.60;;;;;;;27.89;20.92;100472.09;20695120;28;20221;-84
2023/06/11 14:16:00;;;;;;;5.30;4.80;;;;;;;27.79;23.20;100466.16;20680294;28;20637;-85
2023/06/11 14:26:03;;;;;;;5.30;4.38;;;;;;;26.84;22.73;100471.59;20707490;28;20194;-86
2023/06/11 14:36:06;;;;;;;6.70;5.00;;;;;;;27.96;21.17;100463.19;20698815;28;20319;-86
2023/06/11 14:46:08;;;;;;;5.45;4.50;;;;;;;27.64;23.03;100427.19;20687149;28;20259;-81
2023/06/11 14:56:11;;;;;;;4.68;4.00;;;;;;;26.68;22.66;100440.53;20690003;28;20299;-84
2023/06/11 15:06:13;;;;;;;4.72;4.20;;;;;;;26.74;23.32;100427.97;20699728;28;20260;-87
2023/06/11 15:16:16;;;;;;;7.22;4.20;;;;;;;27.26;22.41;100429.13;20706648;28;20256;-86
2023/06/11 15:26:18;;;;;;;9.45;3.78;;;;;;;27.22;21.66;100428.41;20706954;28;20536;-85
2023/06/11 15:36:20;;;;;;;6.10;3.63;;;;;;;27.05;21.72;100428.41;20682997;28;20975;-84
2023/06/11 15:46:23;;;;;;;5.45;4.32;;;;;;;26.51;22.08;100407.03;20609303;28;20198;-83
2023/06/11 15:56:25;;;;;;;5.65;4.13;;;;;;;26.56;20.86;100415.19;20619791;28;20249;-85
2023/06/11 16:06:28;;;;;;;4.70;3.88;;;;;;;26.63;21.63;100409.22;20640916;28;20202;-85
2023/06/11 16:16:30;;;;;;;6.38;3.70;;;;;;;26.50;21.29;100419.88;20640530;28;20697;-84
2023/06/11 16:26:33;;;;;;;5.13;3.70;;;;;;;26.30;22.62;100420.78;20586098;28;20222;-83
2023/06/11 16:36:36;;;;;;;5.63;3.88;;;;;;;25.93;21.63;100419.09;20666266;28;20268;-81
2023/06/11 16:46:38;;;;;;;4.25;3.55;;;;;;;26.14;21.44;100414.94;20712463;28;20264;-81
2023/06/11 16:56:41;;;;;;;3.83;3.42;;;;;;;26.09;21.31;100407.59;20693620;28;20241;-83
2023/06/11 17:06:43;;;;;;;5.95;3.58;;;;;;;25.17;22.10;100400.00;20706373;28;20831;-85
2023/06/11 17:16:45;;;;;;;5.15;4.20;;;;;;;25.42;22.63;100406.13;20691531;28;20255;-83
2023/06/11 17:26:48;;;;;;;4.53;3.72;;;;;;;25.32;20.90;100412.94;20712539;28;20225;-80
2023/06/11 17:36:51;;;;;;;3.70;2.92;;;;;;;25.58;21.35;100414.06;20705658;28;20589;-86
2023/06/11 17:46:53;;;;;;;5.60;3.35;;;;;;;25.49;22.30;100408.88;20705926;28;20726;-85
2023/06/11 17:56:55;;;;;;;5.88;3.67;;;;;;;25.87;21.25;100414.31;20723522;28;20258;-86
2023/06/11 18:06:58;;;;;;;5.13;3.63;;;;;;;25.64;21.49;100413.13;20702060;28;20197;-83
2023/06/11 18:17:00;;;;;;;7.50;3.50;;;;;;;24.89;22.22;100412.88;20686733;28;20249;-83
2023/06/11 18:27:03;;;;;;;5.65;3.22;;;;;;;24.86;22.80;100413.78;20699247;28;20586;-84
2023/06/11 18:37:08;;;;;;;5.55;3.65;;;;;;;24.18;23.00;100420.59;20707885;28;20303;-85
2023/06/11 18:47:11;;;;;;;3.78;2.85;;;;;;;24.66;22.42;100422.34;20670628;28;20228;-84
2023/06/11 18:57:18;;;;;;;3.30;3.00;;;;;;;24.39;22.60;100427.31;20702330;28;20245;-79
2023/06/11 19:07:20;;;;;;;5.32;3.30;;;;;;;23.66;23.50;100426.63;20709438;28;20256;-81
2023/06/11 19:17:23;;;;;;;5.65;3.50;;;;;;;23.98;23.15;100442.69;20690697;28;20257;-81
2023/06/11 19:27:28;;;;;;;4.95;3.35;;;;;;;23.71;23.10;100453.34;20728406;28;20581;-81
2023/06/11 19:37:39;;;;;;;5.15;4.13;;;;;;;23.53;23.71;100457.25;20710553;28;20282;-78
2023/06/11 19:47:41;;;;;;;5.97;3.85;;;;;;;22.70;24.26;100486.41;20725679;28;20263;-80
2023/06/11 19:57:46;;;;;;;5.13;3.33;;;;;;;23.31;23.46;100493.31;20717408;28;20625;-80
2023/06/11 20:07:49;;;;;;;3.17;2.83;;;;;;;22.92;23.78;100510.91;20715574;28;20256;-80
2023/06/11 20:17:58;;;;;;;4.07;3.40;;;;;;;22.22;25.29;100521.59;20716942;28;20303;-83
2023/06/11 20:28:02;;;;;;;4.18;3.10;;;;;;;22.42;24.63;100530.56;20681696;28;20229;-81
2023/06/11 20:38:04;;;;;;;3.50;3.20;;;;;;;22.30;24.57;100534.69;20684309;28;20237;-82
2023/06/11 20:48:07;;;;;;;3.50;3.05;;;;;;;21.70;26.00;100532.03;20667641;28;20194;-80
2023/06/11 20:58:09;;;;;;;3.95;3.20;;;;;;;21.62;25.76;100524.69;20690854;28;20522;-80
2023/06/11 21:08:14;;;;;;;3.55;2.83;;;;;;;21.58;25.62;100524.69;20714909;28;20283;-81
2023/06/11 21:18:16;;;;;;;3.78;3.35;;;;;;;21.00;26.16;100523.06;20706526;28;20221;-82
2023/06/11 21:28:19;;;;;;;4.78;3.47;;;;;;;21.16;26.90;100519.78;20654374;28;20375;-82
2023/06/11 21:38:21;;;;;;;4.60;3.42;;;;;;;21.30;26.14;100528.38;20725295;28;20261;-84
2023/06/11 21:48:25;;;;;;;6.07;3.50;;;;;;;21.38;26.26;100530.00;20687009;28;20263;-81
2023/06/11 21:58:27;;;;;;;5.22;3.42;;;;;;;20.11;29.36;100525.69;20706287;28;20298;-81
2023/06/11 22:08:30;;;;;;;4.20;3.63;;;;;;;20.19;28.74;100529.44;20687168;28;20228;-83
2023/06/11 22:18:32;;;;;;;4.25;3.65;;;;;;;19.71;29.48;100534.47;20689423;28;20252;-81
2023/06/11 22:28:35;;;;;;;3.75;3.33;;;;;;;19.54;29.77;100529.47;20655753;28;20230;-82
2023/06/11 22:38:38;;;;;;;4.38;3.22;;;;;;;19.58;29.90;100534.00;20655064;28;20316;-81
2023/06/11 22:48:41;;;;;;;7.70;3.58;;;;;;;19.37;29.26;100525.28;20689171;28;20214;-82
2023/06/11 22:58:43;;;;;;;3.65;3.20;;;;;;;19.29;29.62;100537.91;20685333;28;20276;-82
2023/06/11 23:08:46;;;;;;;6.50;3.33;;;;;;;19.08;30.01;100545.06;20728263;28;20526;-82
2023/06/11 23:18:53;;;;;;;4.97;3.60;;;;;;;18.98;29.92;100548.66;20743571;28;20273;-82
2023/06/11 23:28:55;;;;;;;6.28;3.85;;;;;;;18.50;30.76;100546.91;20718477;28;20197;-82
2023/06/11 23:38:58;;;;;;;5.03;3.97;;;;;;;18.36;31.58;100536.16;20718087;28;20248;-82
2023/06/11 23:49:02;;;;;;;4.80;3.72;;;;;;;18.15;31.92;100541.59;20721282;28;20206;-82
2023/06/11 23:59:09;;;;;;;3.78;3.40;;;;;;;17.95;33.11;100532.38;20702978;28;20243;-78
